createdAt,value
2017-12-23T00:03:17.079Z,7.80
2017-12-23T00:08:18.612Z,7.70
2017-12-23T00:13:20.132Z,7.70
2017-12-23T00:18:21.665Z,7.70
2017-12-23T00:23:23.225Z,7.80
2017-12-23T00:28:24.789Z,7.70
2017-12-23T00:33:27.114Z,7.70
2017-12-23T00:38:28.652Z,7.60
2017-12-23T00:43:30.304Z,7.70
2017-12-23T00:48:31.819Z,7.70
2017-12-23T00:53:33.368Z,7.60
2017-12-23T00:58:34.923Z,7.60
2017-12-23T01:03:37.237Z,7.30
2017-12-23T01:08:38.821Z,7.30
2017-12-23T01:13:40.313Z,7.20
2017-12-23T01:18:41.828Z,7.30
2017-12-23T01:23:44.091Z,6.90
2017-12-23T01:28:45.624Z,6.90
2017-12-23T01:33:47.167Z,6.90
2017-12-23T01:38:48.676Z,7.00
2017-12-23T01:43:50.218Z,7.10
2017-12-23T01:48:51.797Z,7.10
2017-12-23T01:53:53.337Z,6.90
2017-12-23T01:58:54.896Z,7.00
2017-12-23T02:03:57.212Z,7.10
2017-12-23T02:08:58.753Z,7.00
2017-12-23T02:14:00.277Z,7.10
2017-12-23T02:19:01.726Z,7.10
2017-12-23T02:24:03.260Z,7.10
2017-12-23T02:29:04.836Z,7.00
2017-12-23T02:34:06.382Z,6.80
2017-12-23T02:39:08.658Z,7.00
2017-12-23T02:44:10.169Z,6.90
2017-12-23T02:49:11.686Z,7.00
2017-12-23T02:54:13.966Z,6.90
2017-12-23T02:59:15.483Z,6.90
2017-12-23T03:04:17.007Z,6.90
2017-12-23T03:09:18.510Z,7.00
2017-12-23T03:14:20.059Z,7.10
2017-12-23T03:19:22.314Z,7.10
2017-12-23T03:24:23.834Z,7.10
2017-12-23T03:29:25.361Z,7.20
2017-12-23T03:34:26.916Z,7.30
2017-12-23T03:39:28.424Z,7.40
2017-12-23T03:44:29.943Z,7.30
2017-12-23T03:49:31.460Z,7.40
2017-12-23T03:54:32.966Z,7.30
2017-12-23T03:59:34.444Z,7.30
2017-12-23T04:04:35.964Z,7.30
2017-12-23T04:09:37.496Z,7.00
2017-12-23T04:14:39.800Z,7.00
2017-12-23T04:19:41.339Z,7.00
2017-12-23T04:24:43.616Z,7.00
2017-12-23T04:29:45.150Z,6.90
2017-12-23T04:34:46.634Z,7.10
2017-12-23T04:39:48.157Z,7.20
2017-12-23T04:44:49.811Z,7.40
2017-12-23T04:49:51.265Z,7.40
2017-12-23T04:54:53.524Z,7.40
2017-12-23T04:59:55.817Z,7.40
2017-12-23T05:04:57.309Z,7.30
2017-12-23T05:09:59.062Z,7.30
2017-12-23T05:15:01.308Z,7.20
2017-12-23T05:20:02.799Z,7.20
2017-12-23T05:25:04.306Z,7.30
2017-12-23T05:30:05.781Z,7.30
2017-12-23T05:35:07.320Z,7.30
2017-12-23T05:40:09.559Z,7.30
2017-12-23T05:45:11.052Z,7.20
2017-12-23T05:50:12.558Z,7.30
2017-12-23T05:55:14.037Z,7.20
2017-12-23T06:00:15.776Z,7.20
2017-12-23T06:05:18.132Z,7.30
2017-12-23T06:10:19.622Z,7.20
2017-12-23T06:15:22.154Z,7.30
2017-12-23T06:20:23.645Z,7.30
2017-12-23T06:25:25.149Z,7.30
2017-12-23T06:30:27.359Z,7.40
2017-12-23T06:35:28.889Z,7.40
2017-12-23T06:40:31.181Z,7.60
2017-12-23T06:45:33.437Z,7.60
2017-12-23T06:50:41.899Z,7.50
2017-12-23T06:55:44.131Z,7.60
2017-12-23T07:00:45.668Z,7.50
2017-12-23T07:05:47.172Z,7.60
2017-12-23T07:10:48.694Z,7.70
2017-12-23T07:15:50.224Z,7.80
2017-12-23T07:20:51.734Z,7.80
2017-12-23T07:25:53.244Z,7.80
2017-12-23T07:30:54.762Z,7.90
2017-12-23T07:35:56.249Z,8.00
2017-12-23T07:40:57.754Z,8.00
2017-12-23T07:45:59.279Z,8.00
2017-12-23T07:51:00.789Z,8.00
2017-12-23T07:56:02.295Z,8.20
2017-12-23T08:01:03.733Z,8.30
2017-12-23T08:06:05.261Z,8.40
2017-12-23T08:11:07.586Z,8.60
2017-12-23T08:16:09.093Z,8.80
2017-12-23T08:21:10.624Z,8.90
2017-12-23T08:26:12.145Z,9.00
2017-12-23T08:31:13.720Z,8.90
2017-12-23T08:36:15.190Z,8.70
2017-12-23T08:41:16.754Z,8.70
2017-12-23T08:46:18.232Z,8.70
2017-12-23T08:51:19.702Z,8.70
2017-12-23T08:56:21.241Z,8.80
2017-12-23T09:01:22.790Z,8.90
2017-12-23T09:06:24.356Z,9.00
2017-12-23T09:11:25.877Z,8.90
2017-12-23T09:16:34.385Z,8.90
2017-12-23T09:21:35.895Z,9.00
2017-12-23T09:26:37.499Z,9.00
2017-12-23T09:31:39.041Z,9.10
2017-12-23T09:36:41.554Z,9.20
2017-12-23T09:41:43.136Z,9.10
2017-12-23T09:46:44.668Z,9.10
2017-12-23T09:51:46.890Z,9.20
2017-12-23T09:56:48.401Z,9.20
2017-12-23T10:01:49.886Z,9.20
2017-12-23T10:06:52.194Z,9.30
2017-12-23T10:11:53.757Z,9.20
2017-12-23T10:16:55.235Z,9.40
2017-12-23T10:21:56.740Z,9.50
2017-12-23T10:26:58.255Z,9.30
2017-12-23T10:31:59.820Z,9.30
2017-12-23T10:37:02.102Z,9.50
2017-12-23T10:42:04.381Z,9.50
2017-12-23T10:47:06.651Z,9.50
2017-12-23T10:52:08.176Z,9.50
2017-12-23T10:57:09.652Z,9.50
2017-12-23T11:02:11.232Z,9.50
2017-12-23T11:07:12.754Z,9.50
2017-12-23T11:12:14.284Z,9.60
2017-12-23T11:17:15.841Z,9.60
2017-12-23T11:22:17.320Z,9.50
2017-12-23T11:27:18.910Z,9.50
2017-12-23T11:32:21.207Z,9.40
2017-12-23T11:37:22.716Z,9.40
2017-12-23T11:42:24.290Z,9.50
2017-12-23T11:47:25.784Z,9.50
2017-12-23T11:52:28.143Z,9.60
2017-12-23T11:57:29.889Z,9.50
2017-12-23T12:02:31.406Z,9.50
2017-12-23T12:07:32.989Z,9.70
2017-12-23T12:12:35.238Z,9.80
2017-12-23T12:17:36.813Z,9.70
2017-12-23T12:22:38.404Z,9.80
2017-12-23T12:27:40.693Z,9.90
2017-12-23T12:32:42.965Z,9.80
2017-12-23T12:37:44.406Z,9.80
2017-12-23T12:42:45.937Z,9.80
2017-12-23T12:47:47.489Z,9.90
2017-12-23T12:52:49.078Z,9.80
2017-12-23T12:57:50.658Z,9.90
2017-12-23T13:02:52.157Z,9.90
2017-12-23T13:07:53.691Z,9.90
2017-12-23T13:12:55.240Z,9.90
2017-12-23T13:17:56.793Z,9.90
2017-12-23T13:22:59.012Z,9.90
2017-12-23T13:28:00.625Z,9.90
2017-12-23T13:33:02.872Z,9.90
2017-12-23T13:38:04.435Z,9.90
2017-12-23T13:43:06.030Z,10.00
2017-12-23T13:48:07.526Z,9.90
2017-12-23T13:53:09.756Z,9.90
2017-12-23T13:58:11.285Z,9.90
2017-12-23T14:03:12.849Z,9.90
2017-12-23T14:08:14.361Z,9.90
2017-12-23T14:13:15.956Z,9.90
2017-12-23T14:18:17.507Z,9.80
2017-12-23T14:23:19.006Z,9.80
2017-12-23T14:28:21.363Z,9.80
2017-12-23T14:33:22.891Z,9.70
2017-12-23T14:38:24.450Z,9.70
2017-12-23T14:43:25.988Z,9.70
2017-12-23T14:48:27.532Z,9.70
2017-12-23T14:53:29.164Z,9.70
2017-12-23T14:58:30.671Z,9.70
2017-12-23T15:03:32.240Z,9.60
2017-12-23T15:08:33.797Z,9.60
2017-12-23T15:13:35.356Z,9.50
2017-12-23T15:18:36.855Z,9.60
2017-12-23T15:23:38.372Z,9.50
2017-12-23T15:28:39.849Z,9.50
2017-12-23T15:33:41.400Z,9.50
2017-12-23T15:38:42.969Z,9.50
2017-12-23T15:43:44.500Z,9.50
2017-12-23T15:48:46.964Z,9.40
2017-12-23T15:53:48.522Z,9.40
2017-12-23T15:58:50.175Z,9.40
2017-12-23T16:03:51.868Z,9.40
2017-12-23T16:08:53.402Z,9.40
2017-12-23T16:13:54.939Z,9.40
2017-12-23T16:18:57.272Z,9.40
2017-12-23T16:23:58.789Z,9.40
2017-12-23T16:29:01.158Z,9.50
2017-12-23T16:34:02.705Z,9.40
2017-12-23T16:39:04.275Z,9.50
2017-12-23T16:44:05.826Z,9.40
2017-12-23T16:49:07.282Z,9.40
2017-12-23T16:54:08.883Z,9.40
2017-12-23T16:59:10.412Z,9.40
2017-12-23T17:04:11.985Z,9.40
2017-12-23T17:09:13.613Z,9.40
2017-12-23T17:14:15.424Z,9.40
2017-12-23T17:19:16.851Z,9.40
2017-12-23T17:24:18.368Z,9.40
2017-12-23T17:29:38.308Z,9.40
2017-12-23T17:34:39.938Z,9.30
2017-12-23T17:39:42.206Z,9.30
2017-12-23T17:44:43.803Z,9.20
2017-12-23T17:49:45.316Z,9.30
2017-12-23T17:54:46.984Z,9.30
2017-12-23T17:59:49.205Z,9.40
2017-12-23T18:04:50.781Z,9.30
2017-12-23T18:09:52.278Z,9.40
2017-12-23T18:14:53.839Z,9.50
2017-12-23T18:19:55.402Z,9.50
2017-12-23T18:24:57.098Z,9.50
2017-12-23T18:29:58.889Z,9.50
2017-12-23T18:35:01.221Z,9.50
2017-12-23T18:40:02.814Z,9.50
2017-12-23T18:45:04.381Z,9.60
2017-12-23T18:50:05.896Z,9.60
2017-12-23T18:55:07.520Z,9.50
2017-12-23T19:00:09.060Z,9.50
2017-12-23T19:05:17.534Z,9.50
2017-12-23T19:10:19.842Z,9.50
2017-12-23T19:15:21.413Z,9.40
2017-12-23T19:20:23.016Z,9.50
2017-12-23T19:25:24.578Z,9.40
2017-12-23T19:30:26.094Z,9.40
2017-12-23T19:35:28.479Z,9.40
2017-12-23T19:40:30.822Z,9.50
2017-12-23T19:45:32.404Z,9.40
2017-12-23T19:50:33.933Z,9.40
2017-12-23T19:55:35.435Z,9.50
2017-12-23T20:00:36.969Z,9.40
2017-12-23T20:05:38.411Z,9.50
2017-12-23T20:10:40.673Z,9.50
2017-12-23T20:15:42.181Z,9.40
2017-12-23T20:20:43.700Z,9.50
2017-12-23T20:25:45.220Z,9.40
2017-12-23T20:30:46.768Z,9.40
2017-12-23T20:35:49.159Z,9.40
2017-12-23T20:40:50.711Z,9.30
2017-12-23T20:45:52.958Z,9.40
2017-12-23T20:50:54.482Z,9.30
2017-12-23T20:55:56.042Z,9.40
2017-12-23T21:00:58.256Z,9.40
2017-12-23T21:05:59.822Z,9.40
2017-12-23T21:11:01.378Z,9.50
2017-12-23T21:16:02.944Z,9.40
2017-12-23T21:21:04.389Z,9.40
2017-12-23T21:26:06.645Z,9.50
2017-12-23T21:31:08.217Z,9.40
2017-12-23T21:36:09.755Z,9.40
2017-12-23T21:41:11.226Z,9.40
2017-12-23T21:46:12.694Z,9.40
2017-12-23T21:51:14.223Z,9.30
2017-12-23T21:56:15.856Z,9.40
2017-12-23T22:01:17.357Z,9.40
2017-12-23T22:06:18.908Z,9.40
2017-12-23T22:11:21.198Z,9.30
2017-12-23T22:16:23.478Z,9.40
2017-12-23T22:21:25.788Z,9.40
2017-12-23T22:26:27.357Z,9.40
2017-12-23T22:31:28.927Z,9.30
2017-12-23T22:36:30.505Z,9.40
2017-12-23T22:41:32.054Z,9.30
2017-12-23T22:46:33.594Z,9.30
2017-12-23T22:51:35.884Z,9.30
2017-12-23T22:56:38.186Z,9.20
2017-12-23T23:01:40.461Z,9.30
2017-12-23T23:06:42.799Z,9.20
2017-12-23T23:11:44.352Z,9.20
2017-12-23T23:16:45.909Z,9.30
2017-12-23T23:21:47.541Z,9.30
2017-12-23T23:26:49.795Z,9.30
2017-12-23T23:31:51.297Z,9.20
2017-12-23T23:36:53.559Z,9.30
2017-12-23T23:41:55.100Z,9.30
2017-12-23T23:46:56.731Z,9.30
2017-12-23T23:51:58.973Z,9.20
2017-12-23T23:57:00.457Z,9.20
